Time;durP1;ratioP1;P1;durP2;ratioP2;P2;SDS_P1;SDS_P2;PMS_P1;PMS_P2;Temp;Humidity;BMP_temperature;BMP_pressure;BME280_temperature;BME280_humidity;BME280_pressure;Samples;Min_cycle;Max_cycle;Signal;HPM_P1;HPM_P2
2023/06/27 00:00:20;;;;;;;1.40;1.40;;;23.60;83.10;;;;;;5083245;28;20575;-71
2023/06/27 00:02:47;;;;;;;1.17;1.17;;;23.50;83.50;;;;;;5078118;28;20209;-70
2023/06/27 00:05:16;;;;;;;1.52;1.42;;;23.50;84.10;;;;;;5090235;28;20184;-70
2023/06/27 00:07:43;;;;;;;1.45;1.35;;;23.40;84.50;;;;;;5089429;28;20606;-70
2023/06/27 00:10:11;;;;;;;1.52;1.42;;;23.40;85.80;;;;;;5079871;28;20549;-70
2023/06/27 00:12:38;;;;;;;1.60;1.50;;;23.30;85.60;;;;;;5089120;28;20192;-69
2023/06/27 00:15:06;;;;;;;1.70;1.60;;;23.30;86.30;;;;;;5081148;28;20200;-69
2023/06/27 00:17:37;;;;;;;1.60;1.50;;;23.30;86.80;;;;;;5085315;28;20724;-69
2023/06/27 00:20:09;;;;;;;1.90;1.80;;;23.30;87.40;;;;;;5070839;28;20296;-70
2023/06/27 00:22:39;;;;;;;1.67;1.58;;;23.30;88.20;;;;;;5070375;28;20208;-70
2023/06/27 00:25:09;;;;;;;1.85;1.75;;;23.30;88.50;;;;;;5085652;28;20212;-68
2023/06/27 00:27:36;;;;;;;1.30;1.30;;;23.30;89.00;;;;;;5087422;28;20203;-69
2023/06/27 00:30:10;;;;;;;1.70;1.60;;;23.20;89.40;;;;;;5064619;28;20205;-69
2023/06/27 00:32:38;;;;;;;1.35;1.35;;;23.20;89.80;;;;;;5082361;28;20196;-68
2023/06/27 00:35:07;;;;;;;1.60;1.50;;;23.20;90.10;;;;;;5086521;28;20196;-69
2023/06/27 00:37:34;;;;;;;1.33;1.33;;;23.20;90.30;;;;;;5081565;28;20207;-69
2023/06/27 00:40:01;;;;;;;1.80;1.70;;;23.10;90.60;;;;;;5064850;28;20213;-69
2023/06/27 00:42:28;;;;;;;1.80;1.70;;;23.10;91.00;;;;;;5070758;28;20238;-69
2023/06/27 00:44:56;;;;;;;1.67;1.58;;;23.10;91.30;;;;;;5078055;28;20243;-69
2023/06/27 00:47:23;;;;;;;1.67;1.58;;;23.10;91.60;;;;;;5064501;28;20216;-69
2023/06/27 00:49:52;;;;;;;1.50;1.40;;;23.10;91.90;;;;;;5083371;28;20204;-70
2023/06/27 00:52:19;;;;;;;1.40;1.30;;;23.10;92.10;;;;;;5070605;28;20214;-70
2023/06/27 00:54:47;;;;;;;1.85;1.75;;;23.10;92.30;;;;;;5064192;28;20586;-69
2023/06/27 00:57:17;;;;;;;2.45;1.70;;;23.10;92.50;;;;;;5065521;28;20204;-69
2023/06/27 00:59:45;;;;;;;1.60;1.40;;;23.00;92.60;;;;;;5068501;28;20296;-69
2023/06/27 01:02:13;;;;;;;2.05;1.77;;;22.90;92.70;;;;;;5070053;28;20211;-70
2023/06/27 01:04:51;;;;;;;1.98;1.88;;;22.90;93.00;;;;;;5062855;28;20244;-70
2023/06/27 01:07:24;;;;;;;1.50;1.40;;;22.90;93.30;;;;;;5090117;28;20655;-70
2023/06/27 01:09:55;;;;;;;2.10;2.00;;;22.80;93.50;;;;;;5088899;28;20194;-70
2023/06/27 01:12:29;;;;;;;1.35;1.35;;;22.80;93.70;;;;;;5089906;28;20223;-70
2023/06/27 01:14:57;;;;;;;1.70;1.60;;;22.80;93.90;;;;;;5089494;28;20220;-70
2023/06/27 01:17:25;;;;;;;1.73;1.63;;;22.80;94.20;;;;;;5071229;28;20250;-69
2023/06/27 01:20:00;;;;;;;1.88;1.63;;;22.70;94.30;;;;;;5089623;28;20196;-70
2023/06/27 01:22:31;;;;;;;1.60;1.50;;;22.80;94.50;;;;;;5090068;28;20200;-69
2023/06/27 01:25:00;;;;;;;1.52;1.38;;;22.80;94.70;;;;;;5070509;28;20220;-69
2023/06/27 01:27:28;;;;;;;1.60;1.50;;;22.70;94.90;;;;;;5089298;28;20196;-69
2023/06/27 01:29:57;;;;;;;2.10;1.90;;;22.70;95.10;;;;;;5089198;28;20207;-69
2023/06/27 01:32:28;;;;;;;1.70;1.60;;;22.70;95.40;;;;;;5088139;28;20684;-69
2023/06/27 01:35:04;;;;;;;1.70;1.60;;;22.60;95.60;;;;;;5068517;28;20223;-69
2023/06/27 01:37:36;;;;;;;3.28;1.70;;;22.60;95.80;;;;;;5078218;28;20193;-69
2023/06/27 01:40:14;;;;;;;2.20;2.10;;;22.60;96.30;;;;;;5080920;28;20192;-70
2023/06/27 01:42:43;;;;;;;2.10;1.90;;;22.60;96.70;;;;;;5064410;28;20287;-69
2023/06/27 01:45:12;;;;;;;2.20;2.00;;;22.60;96.80;;;;;;5075248;28;20304;-69
2023/06/27 01:47:45;;;;;;;2.13;2.03;;;22.60;97.00;;;;;;5066473;28;20213;-69
2023/06/27 01:50:13;;;;;;;3.15;1.92;;;22.50;97.20;;;;;;5073176;28;20197;-69
2023/06/27 01:52:41;;;;;;;2.50;2.13;;;22.60;97.50;;;;;;5071696;28;20208;-69
2023/06/27 01:55:22;;;;;;;1.98;1.88;;;22.60;97.70;;;;;;5079724;28;20185;-69
2023/06/27 01:57:52;;;;;;;2.15;2.05;;;22.70;98.00;;;;;;5068702;28;20201;-69
2023/06/27 02:00:19;;;;;;;1.95;1.85;;;22.60;98.20;;;;;;5067769;28;20723;-69
2023/06/27 02:02:48;;;;;;;1.80;1.70;;;22.70;98.40;;;;;;5080388;28;20204;-69
2023/06/27 02:05:15;;;;;;;1.80;1.70;;;22.70;98.50;;;;;;5050159;28;20332;-70
2023/06/27 02:07:47;;;;;;;1.95;1.85;;;22.70;98.70;;;;;;5055374;28;20201;-70
2023/06/27 02:10:17;;;;;;;2.00;1.90;;;22.70;98.90;;;;;;5086397;28;20731;-69
2023/06/27 02:12:44;;;;;;;1.80;1.70;;;22.70;99.10;;;;;;5073859;28;20193;-70
2023/06/27 02:15:12;;;;;;;1.88;1.77;;;22.70;99.30;;;;;;5067896;28;20689;-70
2023/06/27 02:17:40;;;;;;;2.13;2.03;;;22.60;99.40;;;;;;5054943;28;20729;-70
2023/06/27 02:20:10;;;;;;;1.73;1.63;;;22.70;99.60;;;;;;5073480;28;20196;-70
2023/06/27 02:22:38;;;;;;;1.98;1.88;;;22.70;99.80;;;;;;5083153;28;20230;-69
2023/06/27 02:25:07;;;;;;;2.47;2.28;;;22.70;99.90;;;;;;5060057;28;20212;-69
2023/06/27 02:27:36;;;;;;;2.10;2.00;;;22.70;99.90;;;;;;5074583;28;20212;-69
2023/06/27 02:30:03;;;;;;;2.13;2.03;;;22.70;99.90;;;;;;5068720;28;20250;-68
2023/06/27 02:32:30;;;;;;;2.00;1.90;;;22.70;99.90;;;;;;5084188;28;20665;-70
2023/06/27 02:34:57;;;;;;;2.42;2.22;;;22.60;99.90;;;;;;5078752;28;20239;-69
2023/06/27 02:37:24;;;;;;;1.77;1.35;;;22.50;99.90;;;;;;5065769;28;20207;-69
2023/06/27 02:39:52;;;;;;;1.67;1.58;;;22.50;99.90;;;;;;5079811;28;20193;-69
2023/06/27 02:42:21;;;;;;;1.38;1.27;;;22.30;99.90;;;;;;5069930;28;20247;-68
2023/06/27 02:44:50;;;;;;;1.30;1.30;;;22.20;99.90;;;;;;5078423;28;20215;-69
2023/06/27 02:47:17;;;;;;;1.38;1.27;;;22.10;99.90;;;;;;5082084;28;20280;-69
2023/06/27 02:49:44;;;;;;;1.10;1.10;;;22.10;99.90;;;;;;5083591;28;20280;-69
2023/06/27 02:52:16;;;;;;;1.02;1.02;;;22.00;99.90;;;;;;5069266;28;20204;-67
2023/06/27 02:54:44;;;;;;;1.17;1.17;;;22.00;99.90;;;;;;5069560;28;20200;-68
2023/06/27 02:57:11;;;;;;;2.53;1.00;;;21.90;99.90;;;;;;5071808;28;20295;-68
2023/06/27 02:59:40;;;;;;;0.80;0.80;;;21.80;99.90;;;;;;5070700;28;20200;-69
2023/06/27 03:02:12;;;;;;;0.90;0.90;;;21.70;99.90;;;;;;5089467;28;20212;-69
2023/06/27 03:04:41;;;;;;;0.93;0.93;;;21.70;99.90;;;;;;5073906;28;20575;-68
2023/06/27 03:07:09;;;;;;;0.90;0.90;;;21.60;99.90;;;;;;5071071;28;20850;-68
2023/06/27 03:09:38;;;;;;;1.83;0.90;;;21.60;99.90;;;;;;5062154;28;20201;-68
2023/06/27 03:12:08;;;;;;;1.45;1.00;;;21.60;99.90;;;;;;5073261;28;20224;-67
2023/06/27 03:14:36;;;;;;;2.05;1.15;;;21.60;99.90;;;;;;5072471;28;20219;-68
2023/06/27 03:17:06;;;;;;;1.85;1.00;;;21.60;99.90;;;;;;5071112;28;20207;-68
2023/06/27 03:19:34;;;;;;;1.25;1.00;;;21.50;99.90;;;;;;5072987;28;20207;-68
2023/06/27 03:22:02;;;;;;;0.80;0.80;;;21.50;99.90;;;;;;5091879;28;20199;-68
2023/06/27 03:24:32;;;;;;;1.05;1.02;;;21.50;99.90;;;;;;5072004;28;20986;-69
2023/06/27 03:27:01;;;;;;;0.90;0.90;;;21.50;99.90;;;;;;5073251;28;20208;-69
2023/06/27 03:29:28;;;;;;;1.27;1.17;;;21.50;99.90;;;;;;5070268;28;20300;-70
2023/06/27 03:31:57;;;;;;;0.95;0.88;;;21.60;99.90;;;;;;5090751;28;20265;-69
2023/06/27 03:34:24;;;;;;;1.10;1.10;;;21.60;99.90;;;;;;5070971;28;20696;-68
2023/06/27 03:36:53;;;;;;;2.90;1.15;;;21.60;99.90;;;;;;5077689;28;20622;-68
2023/06/27 03:39:20;;;;;;;1.52;0.90;;;21.60;99.90;;;;;;5070764;28;20228;-68
2023/06/27 03:41:49;;;;;;;1.33;1.17;;;21.70;99.90;;;;;;5059144;28;20209;-68
2023/06/27 03:44:16;;;;;;;0.68;0.60;;;21.70;99.90;;;;;;5072718;28;20579;-68
2023/06/27 03:46:43;;;;;;;1.10;1.10;;;21.70;99.90;;;;;;5072718;28;20197;-69
2023/06/27 03:49:10;;;;;;;1.02;1.00;;;21.70;99.90;;;;;;5072253;28;20228;-69
2023/06/27 03:51:40;;;;;;;1.00;1.00;;;21.60;99.90;;;;;;5073151;28;20208;-69
2023/06/27 03:54:09;;;;;;;2.45;0.77;;;21.70;99.90;;;;;;5059478;28;20194;-69
2023/06/27 03:56:36;;;;;;;0.93;0.93;;;21.70;99.90;;;;;;5072149;28;20295;-69
2023/06/27 03:59:03;;;;;;;1.30;0.90;;;21.70;99.90;;;;;;5067365;28;20200;-70
2023/06/27 04:01:33;;;;;;;0.70;0.70;;;21.70;99.90;;;;;;5062222;28;20755;-68
2023/06/27 04:04:02;;;;;;;0.80;0.80;;;21.60;99.90;;;;;;5086937;28;20209;-69
2023/06/27 04:06:32;;;;;;;1.08;0.90;;;21.70;99.90;;;;;;5079270;28;20325;-69
2023/06/27 04:08:59;;;;;;;1.10;1.00;;;21.60;99.90;;;;;;5064400;28;20319;-69
2023/06/27 04:11:31;;;;;;;1.05;0.82;;;21.60;99.90;;;;;;5071474;28;20664;-69
2023/06/27 04:13:59;;;;;;;1.17;0.90;;;21.70;99.90;;;;;;5090987;28;20197;-69
2023/06/27 04:16:29;;;;;;;1.40;0.90;;;21.70;99.90;;;;;;5062456;28;20666;-70
2023/06/27 04:18:56;;;;;;;0.73;0.73;;;21.60;99.90;;;;;;5086266;28;20181;-69
2023/06/27 04:21:23;;;;;;;2.08;0.90;;;21.50;99.90;;;;;;5080831;28;20197;-69
2023/06/27 04:23:51;;;;;;;1.23;1.13;;;21.50;99.90;;;;;;5081086;28;20607;-70
2023/06/27 04:26:18;;;;;;;1.23;1.13;;;21.40;99.90;;;;;;5061016;28;20295;-69
2023/06/27 04:28:47;;;;;;;1.58;1.08;;;21.40;99.90;;;;;;5063839;28;20247;-69
2023/06/27 04:31:16;;;;;;;1.38;1.10;;;21.40;99.90;;;;;;5086248;28;20200;-70
2023/06/27 04:33:44;;;;;;;1.60;1.05;;;21.30;99.90;;;;;;5079268;28;20194;-69
2023/06/27 04:36:15;;;;;;;1.00;1.00;;;21.30;99.90;;;;;;5060706;28;20205;-70
2023/06/27 04:38:43;;;;;;;3.78;1.23;;;21.30;99.90;;;;;;5082736;28;20303;-69
2023/06/27 04:41:12;;;;;;;1.00;1.00;;;21.20;99.90;;;;;;5089959;28;20553;-70
2023/06/27 04:43:41;;;;;;;0.80;0.80;;;21.20;99.90;;;;;;5090412;28;20279;-69
2023/06/27 04:46:12;;;;;;;2.95;0.90;;;21.20;99.90;;;;;;5078521;28;20213;-69
2023/06/27 04:48:39;;;;;;;1.67;1.02;;;21.20;99.90;;;;;;5089290;28;20200;-68
2023/06/27 04:51:08;;;;;;;0.98;0.95;;;21.20;99.90;;;;;;5089672;28;20204;-69
2023/06/27 04:53:35;;;;;;;1.25;1.15;;;21.20;99.90;;;;;;5069722;28;20262;-69
2023/06/27 04:56:02;;;;;;;1.40;1.00;;;21.10;99.90;;;;;;5088926;28;20287;-69
2023/06/27 04:58:36;;;;;;;2.05;0.80;;;21.10;99.90;;;;;;5070695;28;20303;-69
2023/06/27 05:01:03;;;;;;;0.80;0.80;;;21.10;99.90;;;;;;5068389;28;20201;-69
2023/06/27 05:03:31;;;;;;;0.85;0.70;;;21.10;99.90;;;;;;5086406;28;20233;-69
2023/06/27 05:05:58;;;;;;;0.90;0.90;;;21.10;99.90;;;;;;5087449;28;20224;-69
2023/06/27 05:08:26;;;;;;;1.60;0.95;;;21.10;99.90;;;;;;5088807;28;20219;-69
2023/06/27 05:10:58;;;;;;;1.83;0.95;;;21.10;99.90;;;;;;5089287;28;20270;-69
2023/06/27 05:13:27;;;;;;;0.70;0.70;;;21.20;99.90;;;;;;5088725;28;20221;-69
2023/06/27 05:15:54;;;;;;;3.65;1.17;;;21.10;99.90;;;;;;5082529;28;20216;-69
2023/06/27 05:18:26;;;;;;;1.00;1.00;;;21.10;99.90;;;;;;5089511;28;20196;-68
2023/06/27 05:20:57;;;;;;;0.95;0.95;;;21.10;99.90;;;;;;5070414;28;20260;-69
2023/06/27 05:23:24;;;;;;;1.20;1.10;;;21.10;99.90;;;;;;5071578;28;20208;-69
2023/06/27 05:25:51;;;;;;;1.48;1.10;;;21.10;99.90;;;;;;5092692;28;20239;-70
2023/06/27 05:28:23;;;;;;;3.05;1.20;;;21.10;99.90;;;;;;5094012;28;20220;-69
2023/06/27 05:30:53;;;;;;;1.75;1.00;;;21.10;99.90;;;;;;5092424;28;20207;-69
2023/06/27 05:33:20;;;;;;;2.63;1.08;;;21.10;99.90;;;;;;5085606;28;20197;-69
2023/06/27 05:35:47;;;;;;;1.27;1.00;;;21.10;99.90;;;;;;5093028;28;20714;-69
2023/06/27 05:38:19;;;;;;;2.03;1.27;;;21.10;99.90;;;;;;5090643;28;20656;-69
2023/06/27 05:40:46;;;;;;;1.30;1.00;;;21.00;99.90;;;;;;5074457;28;20279;-69
2023/06/27 05:43:14;;;;;;;1.08;0.98;;;21.00;99.90;;;;;;5075099;28;20204;-69
2023/06/27 05:45:41;;;;;;;1.75;0.82;;;21.00;99.90;;;;;;5073769;28;20597;-69
2023/06/27 05:48:08;;;;;;;1.50;0.82;;;21.00;99.90;;;;;;5092952;28;20276;-69
2023/06/27 05:50:36;;;;;;;3.13;0.95;;;21.00;99.90;;;;;;5092892;28;20204;-69
2023/06/27 05:53:03;;;;;;;2.15;1.00;;;21.00;99.90;;;;;;5093180;28;20257;-69
2023/06/27 05:55:32;;;;;;;0.70;0.70;;;21.00;99.90;;;;;;5092067;28;20192;-70
2023/06/27 05:57:59;;;;;;;1.60;0.95;;;21.10;99.90;;;;;;5093563;28;20196;-69
2023/06/27 06:00:29;;;;;;;2.63;1.15;;;21.10;99.90;;;;;;5091823;28;20200;-67
2023/06/27 06:02:56;;;;;;;0.77;0.77;;;21.10;99.90;;;;;;5070308;28;20208;-67
2023/06/27 06:05:23;;;;;;;2.70;0.88;;;21.00;99.90;;;;;;5072162;28;20264;-68
2023/06/27 06:07:51;;;;;;;2.47;0.98;;;21.00;99.90;;;;;;5084643;28;20201;-76
2023/06/27 06:10:21;;;;;;;0.90;0.90;;;21.00;99.90;;;;;;5090037;28;20211;-77
2023/06/27 06:12:53;;;;;;;0.88;0.88;;;21.00;99.90;;;;;;5091323;28;20678;-69
2023/06/27 06:15:20;;;;;;;1.65;1.20;;;21.10;99.90;;;;;;5069242;28;20569;-68
2023/06/27 06:17:47;;;;;;;1.58;1.13;;;21.00;99.90;;;;;;5062650;28;20236;-68
2023/06/27 06:20:14;;;;;;;1.67;1.23;;;21.00;99.90;;;;;;5090266;28;20664;-69
2023/06/27 06:22:41;;;;;;;2.30;1.00;;;21.00;99.90;;;;;;5090350;28;20690;-68
2023/06/27 06:25:08;;;;;;;1.75;1.20;;;21.10;99.90;;;;;;5070905;28;20556;-68
2023/06/27 06:27:38;;;;;;;2.47;1.10;;;21.10;99.90;;;;;;5091247;28;20257;-69
2023/06/27 06:30:09;;;;;;;1.52;1.10;;;21.20;99.90;;;;;;5089981;28;20249;-69
2023/06/27 06:32:36;;;;;;;1.13;1.00;;;21.30;99.90;;;;;;5088597;28;20286;-68
2023/06/27 06:35:06;;;;;;;1.20;1.02;;;21.30;99.90;;;;;;5080951;28;20193;-69
2023/06/27 06:37:33;;;;;;;1.23;0.90;;;21.30;99.90;;;;;;5086363;28;20192;-68
2023/06/27 06:40:00;;;;;;;0.80;0.80;;;21.30;99.90;;;;;;5081415;28;20207;-69
2023/06/27 06:42:27;;;;;;;1.02;0.90;;;21.30;99.90;;;;;;5090751;28;20253;-69
2023/06/27 06:44:54;;;;;;;1.60;1.00;;;21.40;99.90;;;;;;5068937;28;20236;-69
2023/06/27 06:47:22;;;;;;;1.10;1.00;;;21.40;99.90;;;;;;5090425;28;20207;-69
2023/06/27 06:49:49;;;;;;;0.90;0.90;;;21.50;99.90;;;;;;5084402;28;20205;-68
2023/06/27 06:52:18;;;;;;;1.85;1.00;;;21.50;99.90;;;;;;5089498;28;20247;-68
2023/06/27 06:54:46;;;;;;;0.77;0.77;;;21.60;99.90;;;;;;5088465;28;20291;-68
2023/06/27 06:57:13;;;;;;;0.90;0.90;;;21.70;99.90;;;;;;5076895;28;20280;-68
2023/06/27 06:59:41;;;;;;;1.52;0.70;;;21.80;99.90;;;;;;5082810;28;20208;-68
2023/06/27 07:02:12;;;;;;;1.30;1.20;;;21.80;99.90;;;;;;5075721;28;20556;-69
2023/06/27 07:04:46;;;;;;;2.63;1.00;;;21.80;99.90;;;;;;5090100;28;20245;-69
2023/06/27 07:07:16;;;;;;;1.27;1.17;;;21.90;99.90;;;;;;5089827;28;20229;-68
2023/06/27 07:09:43;;;;;;;1.25;0.98;;;21.90;99.90;;;;;;5061174;28;20197;-69
2023/06/27 07:12:10;;;;;;;2.92;1.10;;;22.00;99.90;;;;;;5071650;28;20224;-68
2023/06/27 07:14:38;;;;;;;1.35;1.00;;;22.00;99.90;;;;;;5086414;28;20259;-70
2023/06/27 07:17:06;;;;;;;2.30;1.10;;;22.10;99.90;;;;;;5080332;28;20531;-69
2023/06/27 07:19:33;;;;;;;2.28;1.05;;;22.10;99.90;;;;;;5088864;28;20257;-69
2023/06/27 07:22:04;;;;;;;0.82;0.82;;;22.20;99.90;;;;;;5088783;28;20199;-68
2023/06/27 07:24:32;;;;;;;1.20;1.00;;;22.20;99.90;;;;;;5082389;28;20234;-69
2023/06/27 07:26:59;;;;;;;1.08;1.00;;;22.30;99.90;;;;;;5089279;28;20261;-68
2023/06/27 07:29:29;;;;;;;1.10;1.00;;;22.30;99.90;;;;;;5063388;28;20212;-69
2023/06/27 07:31:57;;;;;;;1.85;1.05;;;22.30;99.90;;;;;;5086092;28;20590;-69
2023/06/27 07:34:26;;;;;;;1.75;1.20;;;22.30;99.90;;;;;;5083961;28;20193;-69
2023/06/27 07:36:53;;;;;;;2.30;1.15;;;22.40;99.90;;;;;;5084850;28;20637;-68
2023/06/27 07:39:22;;;;;;;1.58;1.02;;;22.50;99.90;;;;;;5068012;28;20234;-69
2023/06/27 07:41:49;;;;;;;2.22;1.25;;;22.60;99.90;;;;;;5079043;28;20263;-69
2023/06/27 07:44:17;;;;;;;1.08;1.00;;;22.70;99.90;;;;;;5088006;28;20223;-68
2023/06/27 07:46:44;;;;;;;1.73;1.17;;;22.70;99.90;;;;;;5085848;28;20588;-68
2023/06/27 07:49:11;;;;;;;1.88;1.20;;;22.80;99.60;;;;;;5062880;28;20659;-69
2023/06/27 07:51:40;;;;;;;1.73;1.13;;;22.80;99.30;;;;;;5083499;28;20191;-68
2023/06/27 07:54:07;;;;;;;1.58;1.10;;;22.90;99.20;;;;;;5081512;28;20189;-68
2023/06/27 07:56:38;;;;;;;0.80;0.80;;;22.70;98.70;;;;;;5084425;28;20204;-69
2023/06/27 07:59:05;;;;;;;1.20;1.10;;;22.90;98.70;;;;;;5079369;28;20312;-69
2023/06/27 08:01:33;;;;;;;1.05;1.00;;;22.90;98.50;;;;;;5087215;28;20199;-69
2023/06/27 08:04:00;;;;;;;1.00;0.88;;;22.90;98.30;;;;;;5082379;28;20541;-68
2023/06/27 08:06:29;;;;;;;1.05;0.90;;;23.00;98.20;;;;;;5083390;28;20229;-68
2023/06/27 08:08:56;;;;;;;0.93;0.73;;;23.00;97.90;;;;;;5086087;28;20287;-69
2023/06/27 08:11:23;;;;;;;1.02;0.90;;;23.10;97.80;;;;;;5065892;28;20208;-68
2023/06/27 08:13:51;;;;;;;1.30;1.20;;;23.10;97.50;;;;;;5069293;28;20301;-69
2023/06/27 08:16:18;;;;;;;0.80;0.80;;;23.30;97.40;;;;;;5087238;28;20197;-69
2023/06/27 08:18:46;;;;;;;0.85;0.85;;;23.30;97.10;;;;;;5069903;28;20201;-69
2023/06/27 08:21:13;;;;;;;1.13;1.02;;;23.40;96.90;;;;;;5084878;28;20270;-69
2023/06/27 08:23:44;;;;;;;0.80;0.80;;;23.40;96.80;;;;;;5087662;28;20212;-69
2023/06/27 08:26:15;;;;;;;0.82;0.80;;;23.50;96.60;;;;;;5087147;28;20246;-69
2023/06/27 08:28:42;;;;;;;1.58;1.10;;;23.60;96.40;;;;;;5088142;28;20707;-68
2023/06/27 08:31:14;;;;;;;0.88;0.88;;;23.60;96.10;;;;;;5087292;28;20197;-69
2023/06/27 08:33:41;;;;;;;1.70;1.05;;;23.60;95.80;;;;;;5087688;28;20188;-68
2023/06/27 08:36:09;;;;;;;1.25;1.08;;;23.60;95.70;;;;;;5043474;28;20675;-69
2023/06/27 08:38:36;;;;;;;1.00;0.80;;;23.60;95.50;;;;;;5086552;28;20193;-69
2023/06/27 08:41:03;;;;;;;0.70;0.70;;;23.60;95.30;;;;;;5087570;28;20462;-68
2023/06/27 08:43:31;;;;;;;1.33;0.80;;;23.60;95.20;;;;;;5068848;28;20283;-68
2023/06/27 08:45:58;;;;;;;1.08;1.00;;;23.60;95.00;;;;;;5077109;28;20201;-69
2023/06/27 08:48:27;;;;;;;1.73;1.63;;;23.60;94.70;;;;;;5087175;28;20234;-69
2023/06/27 08:51:01;;;;;;;1.77;1.67;;;23.70;94.40;;;;;;5063182;28;20197;-69
2023/06/27 08:53:29;;;;;;;2.00;1.85;;;23.80;94.20;;;;;;5085161;28;20191;-69
2023/06/27 08:56:02;;;;;;;1.77;1.40;;;23.80;94.00;;;;;;5069256;28;20188;-70
2023/06/27 08:58:36;;;;;;;2.15;2.00;;;23.80;93.90;;;;;;5087324;28;20211;-69
2023/06/27 09:01:07;;;;;;;1.63;1.52;;;23.70;93.70;;;;;;5083493;28;20276;-70
2023/06/27 09:03:36;;;;;;;2.92;2.08;;;23.80;93.80;;;;;;5086768;28;20189;-69
2023/06/27 09:06:05;;;;;;;2.50;1.73;;;23.70;93.60;;;;;;5062380;28;20332;-69
2023/06/27 09:08:32;;;;;;;1.10;1.10;;;23.80;93.40;;;;;;5066252;28;20580;-68
2023/06/27 09:11:00;;;;;;;2.28;2.15;;;23.80;93.40;;;;;;5066155;28;20254;-69
2023/06/27 09:13:29;;;;;;;2.30;2.20;;;23.90;93.30;;;;;;5063541;28;20206;-69
2023/06/27 09:15:56;;;;;;;1.75;1.67;;;23.90;93.10;;;;;;5065925;28;20193;-69
2023/06/27 09:18:23;;;;;;;4.47;4.10;;;23.90;93.10;;;;;;5067064;28;20199;-69
2023/06/27 09:20:54;;;;;;;4.10;3.80;;;24.00;93.00;;;;;;5067345;28;20729;-69
2023/06/27 09:23:22;;;;;;;2.60;2.40;;;24.10;93.00;;;;;;5065634;28;20630;-68
2023/06/27 09:26:06;;;;;;;2.80;2.53;;;24.20;92.90;;;;;;5066728;28;20215;-69
2023/06/27 09:28:44;;;;;;;2.65;1.95;;;24.20;92.80;;;;;;5066238;28;20251;-70
2023/06/27 09:31:14;;;;;;;4.63;1.80;;;24.20;92.70;;;;;;5059023;28;20636;-69
2023/06/27 09:33:43;;;;;;;1.40;1.30;;;24.20;92.90;;;;;;5064166;28;20212;-69
2023/06/27 09:36:31;;;;;;;1.25;1.15;;;24.10;92.50;;;;;;5063933;28;20287;-68
2023/06/27 09:39:03;;;;;;;0.88;0.88;;;24.10;92.60;;;;;;5062820;28;20204;-69
2023/06/27 09:41:45;;;;;;;1.73;0.98;;;24.10;92.50;;;;;;5059162;28;20233;-68
2023/06/27 09:44:13;;;;;;;1.00;0.90;;;24.10;92.40;;;;;;5067039;28;20255;-70
2023/06/27 09:46:41;;;;;;;0.80;0.80;;;24.10;92.20;;;;;;5058199;28;20241;-70
2023/06/27 09:49:09;;;;;;;1.00;1.00;;;24.00;92.20;;;;;;5066262;28;20276;-70
2023/06/27 09:51:38;;;;;;;0.90;0.90;;;24.00;91.70;;;;;;5064315;28;20204;-70
2023/06/27 09:54:05;;;;;;;0.77;0.77;;;24.00;91.60;;;;;;5064696;28;20596;-69
2023/06/27 09:56:34;;;;;;;0.63;0.63;;;24.00;91.40;;;;;;5065650;28;20320;-70
2023/06/27 09:59:11;;;;;;;2.03;1.00;;;24.10;91.40;;;;;;5066036;28;20288;-70
2023/06/27 10:01:41;;;;;;;2.05;0.60;;;24.20;91.30;;;;;;5062518;28;20209;-70
2023/06/27 10:04:11;;;;;;;0.73;0.65;;;24.20;91.10;;;;;;5066389;28;20883;-70
2023/06/27 10:06:40;;;;;;;1.95;1.20;;;24.20;91.00;;;;;;5064925;28;20229;-69
2023/06/27 10:09:08;;;;;;;1.00;1.00;;;24.20;90.80;;;;;;5066353;28;20808;-70
2023/06/27 10:11:44;;;;;;;0.80;0.80;;;24.20;90.90;;;;;;5070119;28;20212;-69
2023/06/27 10:14:11;;;;;;;0.65;0.65;;;24.20;91.00;;;;;;5070584;28;20276;-69
2023/06/27 10:16:40;;;;;;;0.63;0.63;;;24.20;90.90;;;;;;5066352;28;20218;-69
2023/06/27 10:19:10;;;;;;;0.88;0.88;;;24.30;90.80;;;;;;5063840;28;20189;-69
2023/06/27 10:21:39;;;;;;;2.35;1.05;;;24.30;90.70;;;;;;5069599;28;20255;-68
2023/06/27 10:24:07;;;;;;;2.20;0.82;;;24.30;90.70;;;;;;5068071;28;20194;-69
2023/06/27 10:26:35;;;;;;;1.15;0.77;;;24.30;90.60;;;;;;5070152;28;20213;-69
2023/06/27 10:29:15;;;;;;;1.38;1.05;;;24.20;90.60;;;;;;5068648;28;20240;-69
2023/06/27 10:31:45;;;;;;;1.17;0.90;;;24.20;90.50;;;;;;5066748;28;20193;-66
2023/06/27 10:34:18;;;;;;;1.10;0.90;;;24.20;90.20;;;;;;5058805;28;20198;-67
2023/06/27 10:36:58;;;;;;;0.65;0.65;;;24.00;89.60;;;;;;5070005;28;20779;-67
2023/06/27 10:39:30;;;;;;;1.80;1.10;;;23.80;89.70;;;;;;5060425;28;20221;-67
2023/06/27 10:42:03;;;;;;;0.70;0.70;;;23.70;90.20;;;;;;5069750;28;20284;-67
2023/06/27 10:44:31;;;;;;;0.98;0.93;;;23.60;90.40;;;;;;5066507;28;20188;-67
2023/06/27 10:47:29;;;;;;;2.10;0.88;;;23.60;90.50;;;;;;5065325;28;20208;-67
2023/06/27 10:50:04;;;;;;;0.52;0.52;;;23.50;90.40;;;;;;5066022;28;20559;-67
2023/06/27 10:52:35;;;;;;;0.80;0.70;;;23.40;90.60;;;;;;5068040;28;20204;-67
2023/06/27 10:55:22;;;;;;;0.82;0.80;;;23.40;90.70;;;;;;5069237;28;20299;-67
2023/06/27 10:58:02;;;;;;;0.85;0.85;;;23.30;90.80;;;;;;5064326;28;20181;-67
2023/06/27 11:00:33;;;;;;;0.70;0.70;;;23.30;90.80;;;;;;5063524;28;20529;-67
2023/06/27 11:03:03;;;;;;;0.75;0.75;;;23.40;90.90;;;;;;5068442;28;20224;-67
2023/06/27 11:05:39;;;;;;;1.10;1.00;;;23.40;90.90;;;;;;5068448;28;20613;-67
2023/06/27 11:08:11;;;;;;;0.85;0.85;;;23.30;90.90;;;;;;5071573;28;20670;-67
2023/06/27 11:10:48;;;;;;;1.25;0.90;;;23.20;91.10;;;;;;5089633;28;20222;-67
2023/06/27 11:13:16;;;;;;;1.52;0.90;;;23.00;91.50;;;;;;5089751;28;20237;-66
2023/06/27 11:15:45;;;;;;;1.20;1.00;;;22.80;91.80;;;;;;5089650;28;20192;-66
2023/06/27 11:18:18;;;;;;;0.77;0.77;;;22.70;92.20;;;;;;5089068;28;20700;-67
2023/06/27 11:20:45;;;;;;;0.70;0.70;;;22.60;92.50;;;;;;5081707;28;20248;-67
2023/06/27 11:23:15;;;;;;;1.65;0.93;;;22.50;92.80;;;;;;5088962;28;20196;-67
2023/06/27 11:25:44;;;;;;;1.00;0.80;;;22.40;93.00;;;;;;5087548;28;20185;-67
2023/06/27 11:28:11;;;;;;;1.08;1.00;;;22.30;93.40;;;;;;5071167;28;20224;-67
2023/06/27 11:30:39;;;;;;;1.33;1.10;;;22.10;93.70;;;;;;5084916;28;20275;-67
2023/06/27 11:33:07;;;;;;;0.90;0.90;;;22.00;94.00;;;;;;5084143;28;20224;-66
2023/06/27 11:35:35;;;;;;;0.70;0.70;;;21.90;94.20;;;;;;5083976;28;20262;-66
2023/06/27 11:38:07;;;;;;;1.10;1.00;;;21.80;94.40;;;;;;5084132;28;20189;-66
2023/06/27 11:40:36;;;;;;;0.77;0.77;;;21.80;94.50;;;;;;5076838;28;20193;-67
2023/06/27 11:43:04;;;;;;;0.88;0.85;;;21.70;94.60;;;;;;5084095;28;20250;-67
2023/06/27 11:45:32;;;;;;;0.85;0.85;;;21.70;94.90;;;;;;5080030;28;20584;-67
2023/06/27 11:48:00;;;;;;;1.42;1.30;;;21.60;95.00;;;;;;5088993;28;20216;-67
2023/06/27 11:50:28;;;;;;;0.82;0.82;;;21.60;95.10;;;;;;5083141;28;20204;-67
2023/06/27 11:52:57;;;;;;;0.95;0.95;;;21.60;95.20;;;;;;5087938;28;20580;-68
2023/06/27 11:55:24;;;;;;;1.08;0.85;;;21.50;95.30;;;;;;5083317;28;20579;-68
2023/06/27 11:57:55;;;;;;;0.80;0.80;;;21.50;95.40;;;;;;5086773;28;20208;-67
2023/06/27 12:00:27;;;;;;;0.90;0.90;;;21.60;95.70;;;;;;5080813;28;20201;-67
2023/06/27 12:02:55;;;;;;;0.90;0.90;;;21.60;95.80;;;;;;5088525;28;20460;-67
2023/06/27 12:05:24;;;;;;;0.82;0.82;;;21.60;95.90;;;;;;5088595;28;20308;-67
2023/06/27 12:08:04;;;;;;;0.80;0.80;;;21.60;96.10;;;;;;5088478;28;20204;-67
2023/06/27 12:10:32;;;;;;;1.58;1.17;;;21.60;96.20;;;;;;5069419;28;20326;-68
2023/06/27 12:13:02;;;;;;;0.90;0.90;;;21.70;96.30;;;;;;5089113;28;20200;-67
2023/06/27 12:15:29;;;;;;;1.23;0.95;;;21.60;96.30;;;;;;5080246;28;20567;-66
2023/06/27 12:17:58;;;;;;;1.27;1.17;;;21.60;96.60;;;;;;5086803;28;20193;-72
2023/06/27 12:20:26;;;;;;;0.95;0.90;;;21.60;96.70;;;;;;5084290;28;20218;-72
2023/06/27 12:22:53;;;;;;;1.02;1.02;;;21.70;96.60;;;;;;5088338;28;20612;-72
2023/06/27 12:25:20;;;;;;;0.95;0.95;;;21.80;96.50;;;;;;5087019;28;20196;-73
2023/06/27 12:27:50;;;;;;;1.05;1.00;;;21.90;96.40;;;;;;5088999;28;20565;-73
2023/06/27 12:30:19;;;;;;;1.40;1.30;;;22.00;96.40;;;;;;5065175;28;20200;-73
2023/06/27 12:32:46;;;;;;;2.75;1.25;;;22.10;96.30;;;;;;5087757;28;20194;-72
2023/06/27 12:35:17;;;;;;;1.52;1.30;;;22.20;96.20;;;;;;5085220;28;20563;-71
2023/06/27 12:37:45;;;;;;;1.30;1.20;;;22.20;96.00;;;;;;5088386;28;20193;-75
2023/06/27 12:40:12;;;;;;;1.67;1.20;;;22.20;95.70;;;;;;5085184;28;20204;-75
2023/06/27 12:42:45;;;;;;;2.63;1.30;;;22.30;95.70;;;;;;5083209;28;20279;-76
2023/06/27 12:45:14;;;;;;;1.20;1.10;;;22.30;95.70;;;;;;5084395;28;20201;-68
2023/06/27 12:47:46;;;;;;;2.13;1.25;;;22.40;95.60;;;;;;5066320;28;20209;-67
2023/06/27 12:50:17;;;;;;;1.15;1.10;;;22.40;95.40;;;;;;5069494;28;20200;-67
2023/06/27 12:52:48;;;;;;;1.17;1.08;;;22.40;95.40;;;;;;5069522;28;20207;-67
2023/06/27 12:55:16;;;;;;;1.10;1.00;;;22.30;95.70;;;;;;5068921;28;20200;-67
2023/06/27 12:57:43;;;;;;;1.08;0.98;;;22.30;95.40;;;;;;5088542;28;20184;-67